sensor_id;sensor_type;location;lat;lon;timestamp;P1;durP1;ratioP1;P2;durP2;ratioP2
23658;SDS011;12006;42.666;23.326;2023-11-21T00:02:07;9.17;;;5.73;;
23658;SDS011;12006;42.666;23.326;2023-11-21T00:04:32;9.17;;;6.53;;
23658;SDS011;12006;42.666;23.326;2023-11-21T00:06:57;8.93;;;6.60;;
23658;SDS011;12006;42.666;23.326;2023-11-21T00:09:23;9.87;;;7.23;;
23658;SDS011;12006;42.666;23.326;2023-11-21T00:11:48;11.60;;;6.60;;
23658;SDS011;12006;42.666;23.326;2023-11-21T00:14:13;8.80;;;5.80;;
23658;SDS011;12006;42.666;23.326;2023-11-21T00:16:40;8.63;;;5.67;;
23658;SDS011;12006;42.666;23.326;2023-11-21T00:19:05;9.43;;;6.87;;
23658;SDS011;12006;42.666;23.326;2023-11-21T00:21:30;8.20;;;5.27;;
23658;SDS011;12006;42.666;23.326;2023-11-21T00:23:56;8.57;;;5.60;;
23658;SDS011;12006;42.666;23.326;2023-11-21T00:26:21;8.97;;;6.13;;
23658;SDS011;12006;42.666;23.326;2023-11-21T00:28:46;8.70;;;5.63;;
23658;SDS011;12006;42.666;23.326;2023-11-21T00:31:11;9.70;;;6.00;;
23658;SDS011;12006;42.666;23.326;2023-11-21T00:33:37;9.80;;;6.87;;
23658;SDS011;12006;42.666;23.326;2023-11-21T00:36:02;10.00;;;6.50;;
23658;SDS011;12006;42.666;23.326;2023-11-21T00:38:27;11.23;;;6.47;;
23658;SDS011;12006;42.666;23.326;2023-11-21T00:40:53;10.03;;;6.43;;
23658;SDS011;12006;42.666;23.326;2023-11-21T00:43:21;7.97;;;6.27;;
23658;SDS011;12006;42.666;23.326;2023-11-21T00:45:46;10.77;;;6.37;;
23658;SDS011;12006;42.666;23.326;2023-11-21T00:48:14;9.17;;;5.57;;
23658;SDS011;12006;42.666;23.326;2023-11-21T00:50:39;8.63;;;6.43;;
23658;SDS011;12006;42.666;23.326;2023-11-21T00:53:04;9.50;;;5.20;;
23658;SDS011;12006;42.666;23.326;2023-11-21T00:55:30;7.83;;;5.50;;
23658;SDS011;12006;42.666;23.326;2023-11-21T00:57:55;9.27;;;6.23;;
23658;SDS011;12006;42.666;23.326;2023-11-21T01:00:20;11.73;;;6.77;;
23658;SDS011;12006;42.666;23.326;2023-11-21T01:02:45;7.37;;;5.47;;
23658;SDS011;12006;42.666;23.326;2023-11-21T01:05:11;9.03;;;5.60;;
23658;SDS011;12006;42.666;23.326;2023-11-21T01:07:37;7.83;;;5.47;;
23658;SDS011;12006;42.666;23.326;2023-11-21T01:10:02;7.23;;;5.03;;
23658;SDS011;12006;42.666;23.326;2023-11-21T01:12:30;8.23;;;5.40;;
23658;SDS011;12006;42.666;23.326;2023-11-21T01:14:56;10.40;;;5.57;;
23658;SDS011;12006;42.666;23.326;2023-11-21T01:17:22;9.30;;;6.27;;
23658;SDS011;12006;42.666;23.326;2023-11-21T01:19:47;7.87;;;5.73;;
23658;SDS011;12006;42.666;23.326;2023-11-21T01:22:13;6.57;;;5.10;;
23658;SDS011;12006;42.666;23.326;2023-11-21T01:24:38;6.87;;;5.20;;
23658;SDS011;12006;42.666;23.326;2023-11-21T01:27:03;9.50;;;5.10;;
23658;SDS011;12006;42.666;23.326;2023-11-21T01:29:29;8.43;;;4.77;;
23658;SDS011;12006;42.666;23.326;2023-11-21T01:31:54;16.23;;;5.63;;
23658;SDS011;12006;42.666;23.326;2023-11-21T01:34:20;7.20;;;4.77;;
23658;SDS011;12006;42.666;23.326;2023-11-21T01:36:46;6.97;;;4.57;;
23658;SDS011;12006;42.666;23.326;2023-11-21T01:39:11;7.10;;;5.07;;
23658;SDS011;12006;42.666;23.326;2023-11-21T01:41:40;10.97;;;5.60;;
23658;SDS011;12006;42.666;23.326;2023-11-21T01:44:05;7.90;;;5.90;;
23658;SDS011;12006;42.666;23.326;2023-11-21T01:46:32;16.53;;;5.60;;
23658;SDS011;12006;42.666;23.326;2023-11-21T01:48:58;8.73;;;5.50;;
23658;SDS011;12006;42.666;23.326;2023-11-21T01:51:23;9.33;;;4.77;;
23658;SDS011;12006;42.666;23.326;2023-11-21T01:53:48;8.93;;;5.30;;
23658;SDS011;12006;42.666;23.326;2023-11-21T01:56:14;6.27;;;4.77;;
23658;SDS011;12006;42.666;23.326;2023-11-21T01:58:39;9.33;;;5.40;;
23658;SDS011;12006;42.666;23.326;2023-11-21T02:01:05;7.33;;;4.67;;
23658;SDS011;12006;42.666;23.326;2023-11-21T02:03:30;8.90;;;5.63;;
23658;SDS011;12006;42.666;23.326;2023-11-21T02:05:56;8.43;;;5.63;;
23658;SDS011;12006;42.666;23.326;2023-11-21T02:08:21;9.03;;;5.80;;
23658;SDS011;12006;42.666;23.326;2023-11-21T02:10:46;10.67;;;6.50;;
23658;SDS011;12006;42.666;23.326;2023-11-21T02:13:12;9.37;;;6.10;;
23658;SDS011;12006;42.666;23.326;2023-11-21T02:15:38;11.43;;;6.23;;
23658;SDS011;12006;42.666;23.326;2023-11-21T02:18:03;14.67;;;5.93;;
23658;SDS011;12006;42.666;23.326;2023-11-21T02:20:31;8.17;;;6.23;;
23658;SDS011;12006;42.666;23.326;2023-11-21T02:22:57;7.13;;;5.47;;
23658;SDS011;12006;42.666;23.326;2023-11-21T02:25:28;7.97;;;4.57;;
23658;SDS011;12006;42.666;23.326;2023-11-21T02:27:54;9.93;;;5.03;;
23658;SDS011;12006;42.666;23.326;2023-11-21T02:30:20;9.50;;;6.27;;
23658;SDS011;12006;42.666;23.326;2023-11-21T02:32:46;7.00;;;5.90;;
23658;SDS011;12006;42.666;23.326;2023-11-21T02:35:11;10.23;;;5.63;;
23658;SDS011;12006;42.666;23.326;2023-11-21T02:37:37;8.47;;;5.90;;
23658;SDS011;12006;42.666;23.326;2023-11-21T02:40:04;11.03;;;6.13;;
23658;SDS011;12006;42.666;23.326;2023-11-21T02:42:31;7.97;;;5.47;;
23658;SDS011;12006;42.666;23.326;2023-11-21T02:44:56;9.53;;;5.57;;
23658;SDS011;12006;42.666;23.326;2023-11-21T02:47:22;8.10;;;5.43;;
23658;SDS011;12006;42.666;23.326;2023-11-21T02:49:47;8.60;;;6.43;;
23658;SDS011;12006;42.666;23.326;2023-11-21T02:52:12;8.67;;;5.63;;
23658;SDS011;12006;42.666;23.326;2023-11-21T02:54:37;11.60;;;6.43;;
23658;SDS011;12006;42.666;23.326;2023-11-21T02:57:03;6.90;;;5.67;;
23658;SDS011;12006;42.666;23.326;2023-11-21T02:59:28;7.37;;;6.27;;
23658;SDS011;12006;42.666;23.326;2023-11-21T03:01:53;7.30;;;5.83;;
23658;SDS011;12006;42.666;23.326;2023-11-21T03:04:18;11.60;;;6.87;;
23658;SDS011;12006;42.666;23.326;2023-11-21T03:06:44;12.00;;;7.00;;
23658;SDS011;12006;42.666;23.326;2023-11-21T03:09:10;6.27;;;5.43;;
23658;SDS011;12006;42.666;23.326;2023-11-21T03:11:36;8.57;;;5.60;;
23658;SDS011;12006;42.666;23.326;2023-11-21T03:14:02;7.97;;;6.27;;
23658;SDS011;12006;42.666;23.326;2023-11-21T03:16:27;8.67;;;6.07;;
23658;SDS011;12006;42.666;23.326;2023-11-21T03:18:54;10.97;;;6.37;;
23658;SDS011;12006;42.666;23.326;2023-11-21T03:21:19;10.90;;;5.90;;
23658;SDS011;12006;42.666;23.326;2023-11-21T03:23:44;10.07;;;6.17;;
23658;SDS011;12006;42.666;23.326;2023-11-21T03:26:13;9.77;;;6.80;;
23658;SDS011;12006;42.666;23.326;2023-11-21T03:28:38;11.33;;;6.90;;
23658;SDS011;12006;42.666;23.326;2023-11-21T03:31:04;8.33;;;6.27;;
23658;SDS011;12006;42.666;23.326;2023-11-21T03:33:29;9.07;;;6.70;;
23658;SDS011;12006;42.666;23.326;2023-11-21T03:35:54;12.60;;;7.83;;
23658;SDS011;12006;42.666;23.326;2023-11-21T03:38:20;9.73;;;6.50;;
23658;SDS011;12006;42.666;23.326;2023-11-21T03:40:45;12.53;;;7.87;;
23658;SDS011;12006;42.666;23.326;2023-11-21T03:43:10;12.43;;;8.10;;
23658;SDS011;12006;42.666;23.326;2023-11-21T03:45:36;12.43;;;7.40;;
23658;SDS011;12006;42.666;23.326;2023-11-21T03:48:01;10.27;;;7.10;;
23658;SDS011;12006;42.666;23.326;2023-11-21T03:50:28;10.53;;;7.33;;
23658;SDS011;12006;42.666;23.326;2023-11-21T03:52:53;9.73;;;6.83;;
23658;SDS011;12006;42.666;23.326;2023-11-21T03:55:18;8.20;;;6.97;;
23658;SDS011;12006;42.666;23.326;2023-11-21T03:57:43;12.20;;;8.30;;
23658;SDS011;12006;42.666;23.326;2023-11-21T04:00:09;9.43;;;7.03;;
23658;SDS011;12006;42.666;23.326;2023-11-21T04:02:35;10.43;;;6.70;;
23658;SDS011;12006;42.666;23.326;2023-11-21T04:05:00;11.53;;;7.53;;
23658;SDS011;12006;42.666;23.326;2023-11-21T04:07:25;12.87;;;7.63;;
23658;SDS011;12006;42.666;23.326;2023-11-21T04:09:50;11.67;;;7.40;;
23658;SDS011;12006;42.666;23.326;2023-11-21T04:12:16;14.53;;;8.70;;
23658;SDS011;12006;42.666;23.326;2023-11-21T04:14:41;11.40;;;9.00;;
23658;SDS011;12006;42.666;23.326;2023-11-21T04:17:06;15.00;;;8.73;;
23658;SDS011;12006;42.666;23.326;2023-11-21T04:19:32;12.77;;;8.70;;
23658;SDS011;12006;42.666;23.326;2023-11-21T04:21:57;14.43;;;9.47;;
23658;SDS011;12006;42.666;23.326;2023-11-21T04:24:22;12.03;;;8.53;;
23658;SDS011;12006;42.666;23.326;2023-11-21T04:26:48;14.93;;;8.87;;
23658;SDS011;12006;42.666;23.326;2023-11-21T04:29:13;14.83;;;9.23;;
23658;SDS011;12006;42.666;23.326;2023-11-21T04:31:38;14.33;;;9.63;;
23658;SDS011;12006;42.666;23.326;2023-11-21T04:34:03;13.07;;;10.13;;
23658;SDS011;12006;42.666;23.326;2023-11-21T04:36:29;10.83;;;8.53;;
23658;SDS011;12006;42.666;23.326;2023-11-21T04:38:55;14.07;;;8.90;;
23658;SDS011;12006;42.666;23.326;2023-11-21T04:41:20;16.93;;;10.53;;
23658;SDS011;12006;42.666;23.326;2023-11-21T04:43:46;15.80;;;10.63;;
23658;SDS011;12006;42.666;23.326;2023-11-21T04:46:11;14.43;;;8.57;;
23658;SDS011;12006;42.666;23.326;2023-11-21T04:48:36;16.37;;;10.10;;
23658;SDS011;12006;42.666;23.326;2023-11-21T04:51:01;12.93;;;9.23;;
23658;SDS011;12006;42.666;23.326;2023-11-21T04:53:27;13.07;;;9.43;;
23658;SDS011;12006;42.666;23.326;2023-11-21T04:55:52;10.00;;;8.53;;
23658;SDS011;12006;42.666;23.326;2023-11-21T04:58:18;14.90;;;8.97;;
23658;SDS011;12006;42.666;23.326;2023-11-21T05:00:44;12.33;;;8.07;;
23658;SDS011;12006;42.666;23.326;2023-11-21T05:03:09;11.17;;;7.47;;
23658;SDS011;12006;42.666;23.326;2023-11-21T05:05:34;11.80;;;7.00;;
23658;SDS011;12006;42.666;23.326;2023-11-21T05:08:00;8.20;;;6.67;;
23658;SDS011;12006;42.666;23.326;2023-11-21T05:10:26;11.90;;;7.37;;
23658;SDS011;12006;42.666;23.326;2023-11-21T05:12:51;10.53;;;7.10;;
23658;SDS011;12006;42.666;23.326;2023-11-21T05:15:16;14.40;;;9.00;;
23658;SDS011;12006;42.666;23.326;2023-11-21T05:17:42;10.57;;;9.33;;
23658;SDS011;12006;42.666;23.326;2023-11-21T05:20:09;13.83;;;8.50;;
23658;SDS011;12006;42.666;23.326;2023-11-21T05:22:34;17.43;;;8.43;;
23658;SDS011;12006;42.666;23.326;2023-11-21T05:25:00;14.00;;;9.60;;
23658;SDS011;12006;42.666;23.326;2023-11-21T05:27:25;12.87;;;8.37;;
23658;SDS011;12006;42.666;23.326;2023-11-21T05:29:50;16.67;;;9.33;;
23658;SDS011;12006;42.666;23.326;2023-11-21T05:32:16;12.27;;;8.67;;
23658;SDS011;12006;42.666;23.326;2023-11-21T05:34:42;13.67;;;8.40;;
23658;SDS011;12006;42.666;23.326;2023-11-21T05:37:07;10.23;;;7.33;;
23658;SDS011;12006;42.666;23.326;2023-11-21T05:39:33;11.33;;;7.10;;
23658;SDS011;12006;42.666;23.326;2023-11-21T05:41:58;10.13;;;7.20;;
23658;SDS011;12006;42.666;23.326;2023-11-21T05:44:25;11.03;;;8.27;;
23658;SDS011;12006;42.666;23.326;2023-11-21T05:46:50;8.43;;;7.00;;
23658;SDS011;12006;42.666;23.326;2023-11-21T05:49:15;7.80;;;7.00;;
23658;SDS011;12006;42.666;23.326;2023-11-21T05:51:41;11.03;;;7.47;;
23658;SDS011;12006;42.666;23.326;2023-11-21T05:54:06;10.97;;;8.10;;
23658;SDS011;12006;42.666;23.326;2023-11-21T05:56:32;13.10;;;7.40;;
23658;SDS011;12006;42.666;23.326;2023-11-21T05:58:58;12.07;;;7.03;;
23658;SDS011;12006;42.666;23.326;2023-11-21T06:01:23;16.50;;;8.47;;
23658;SDS011;12006;42.666;23.326;2023-11-21T06:03:48;11.23;;;8.13;;
23658;SDS011;12006;42.666;23.326;2023-11-21T06:06:13;11.80;;;8.03;;
23658;SDS011;12006;42.666;23.326;2023-11-21T06:08:39;13.20;;;8.50;;
23658;SDS011;12006;42.666;23.326;2023-11-21T06:11:04;13.07;;;7.03;;
23658;SDS011;12006;42.666;23.326;2023-11-21T06:13:29;9.40;;;7.30;;
23658;SDS011;12006;42.666;23.326;2023-11-21T06:15:55;15.73;;;9.03;;
23658;SDS011;12006;42.666;23.326;2023-11-21T06:18:20;16.50;;;10.07;;
23658;SDS011;12006;42.666;23.326;2023-11-21T06:20:46;11.03;;;8.27;;
23658;SDS011;12006;42.666;23.326;2023-11-21T06:23:11;10.80;;;7.37;;
23658;SDS011;12006;42.666;23.326;2023-11-21T06:25:37;9.87;;;6.83;;
23658;SDS011;12006;42.666;23.326;2023-11-21T06:28:02;9.80;;;7.07;;
23658;SDS011;12006;42.666;23.326;2023-11-21T06:30:27;7.60;;;5.73;;
23658;SDS011;12006;42.666;23.326;2023-11-21T06:32:53;10.37;;;7.37;;
23658;SDS011;12006;42.666;23.326;2023-11-21T06:35:20;11.20;;;7.40;;
23658;SDS011;12006;42.666;23.326;2023-11-21T06:37:45;11.70;;;6.83;;
23658;SDS011;12006;42.666;23.326;2023-11-21T06:40:12;13.80;;;7.83;;
23658;SDS011;12006;42.666;23.326;2023-11-21T06:42:38;13.67;;;8.77;;
23658;SDS011;12006;42.666;23.326;2023-11-21T06:45:04;9.43;;;7.50;;
23658;SDS011;12006;42.666;23.326;2023-11-21T06:47:29;8.43;;;7.03;;
23658;SDS011;12006;42.666;23.326;2023-11-21T06:49:55;11.33;;;8.03;;
23658;SDS011;12006;42.666;23.326;2023-11-21T06:52:20;11.17;;;7.67;;
23658;SDS011;12006;42.666;23.326;2023-11-21T06:54:47;9.50;;;7.13;;
23658;SDS011;12006;42.666;23.326;2023-11-21T06:57:12;14.10;;;8.07;;
23658;SDS011;12006;42.666;23.326;2023-11-21T06:59:38;11.53;;;6.80;;
23658;SDS011;12006;42.666;23.326;2023-11-21T07:02:03;12.67;;;7.47;;
23658;SDS011;12006;42.666;23.326;2023-11-21T07:04:31;7.40;;;6.33;;
23658;SDS011;12006;42.666;23.326;2023-11-21T07:06:57;9.60;;;7.23;;
23658;SDS011;12006;42.666;23.326;2023-11-21T07:09:22;9.87;;;6.97;;
23658;SDS011;12006;42.666;23.326;2023-11-21T07:11:47;10.87;;;7.00;;
23658;SDS011;12006;42.666;23.326;2023-11-21T07:14:13;11.27;;;6.17;;
23658;SDS011;12006;42.666;23.326;2023-11-21T07:16:38;7.93;;;6.40;;
23658;SDS011;12006;42.666;23.326;2023-11-21T07:19:04;9.10;;;6.57;;
23658;SDS011;12006;42.666;23.326;2023-11-21T07:21:31;7.77;;;5.50;;
23658;SDS011;12006;42.666;23.326;2023-11-21T07:23:56;10.40;;;6.97;;
23658;SDS011;12006;42.666;23.326;2023-11-21T07:26:21;9.83;;;6.63;;
23658;SDS011;12006;42.666;23.326;2023-11-21T07:28:47;10.20;;;6.77;;
23658;SDS011;12006;42.666;23.326;2023-11-21T07:31:12;8.63;;;6.60;;
23658;SDS011;12006;42.666;23.326;2023-11-21T07:33:38;9.50;;;7.00;;
23658;SDS011;12006;42.666;23.326;2023-11-21T07:36:03;10.27;;;7.37;;
23658;SDS011;12006;42.666;23.326;2023-11-21T07:38:28;7.73;;;6.93;;
23658;SDS011;12006;42.666;23.326;2023-11-21T07:40:53;9.30;;;7.20;;
23658;SDS011;12006;42.666;23.326;2023-11-21T07:43:19;8.53;;;6.73;;
23658;SDS011;12006;42.666;23.326;2023-11-21T07:45:44;10.03;;;7.23;;
23658;SDS011;12006;42.666;23.326;2023-11-21T07:48:10;9.60;;;6.57;;
23658;SDS011;12006;42.666;23.326;2023-11-21T07:50:35;10.43;;;8.27;;
23658;SDS011;12006;42.666;23.326;2023-11-21T07:53:00;9.03;;;7.00;;
23658;SDS011;12006;42.666;23.326;2023-11-21T07:55:25;14.50;;;7.60;;
23658;SDS011;12006;42.666;23.326;2023-11-21T07:57:51;10.40;;;7.93;;
23658;SDS011;12006;42.666;23.326;2023-11-21T08:00:16;9.77;;;7.17;;
23658;SDS011;12006;42.666;23.326;2023-11-21T08:02:42;11.60;;;7.90;;
23658;SDS011;12006;42.666;23.326;2023-11-21T08:05:08;9.93;;;7.53;;
23658;SDS011;12006;42.666;23.326;2023-11-21T08:07:33;14.53;;;9.30;;
23658;SDS011;12006;42.666;23.326;2023-11-21T08:09:58;15.70;;;10.27;;
23658;SDS011;12006;42.666;23.326;2023-11-21T08:12:24;13.20;;;9.67;;
23658;SDS011;12006;42.666;23.326;2023-11-21T08:14:49;14.03;;;9.30;;
23658;SDS011;12006;42.666;23.326;2023-11-21T08:17:14;12.93;;;7.83;;
23658;SDS011;12006;42.666;23.326;2023-11-21T08:19:39;8.93;;;8.00;;
23658;SDS011;12006;42.666;23.326;2023-11-21T08:22:05;12.63;;;7.57;;
23658;SDS011;12006;42.666;23.326;2023-11-21T08:24:33;9.47;;;7.40;;
23658;SDS011;12006;42.666;23.326;2023-11-21T08:26:58;9.07;;;6.50;;
23658;SDS011;12006;42.666;23.326;2023-11-21T08:29:23;9.80;;;7.53;;
23658;SDS011;12006;42.666;23.326;2023-11-21T08:31:49;8.70;;;7.40;;
23658;SDS011;12006;42.666;23.326;2023-11-21T08:34:15;11.70;;;7.53;;
23658;SDS011;12006;42.666;23.326;2023-11-21T08:36:43;9.30;;;7.60;;
23658;SDS011;12006;42.666;23.326;2023-11-21T08:39:09;12.13;;;8.03;;
23658;SDS011;12006;42.666;23.326;2023-11-21T08:41:35;12.33;;;8.43;;
23658;SDS011;12006;42.666;23.326;2023-11-21T08:44:01;16.37;;;11.80;;
23658;SDS011;12006;42.666;23.326;2023-11-21T08:46:27;11.10;;;7.70;;
23658;SDS011;12006;42.666;23.326;2023-11-21T08:48:52;9.77;;;8.37;;
23658;SDS011;12006;42.666;23.326;2023-11-21T08:51:18;12.03;;;8.53;;
23658;SDS011;12006;42.666;23.326;2023-11-21T08:53:43;13.47;;;8.70;;
23658;SDS011;12006;42.666;23.326;2023-11-21T08:56:12;8.00;;;6.97;;
23658;SDS011;12006;42.666;23.326;2023-11-21T08:58:37;8.80;;;6.97;;
23658;SDS011;12006;42.666;23.326;2023-11-21T09:01:02;10.50;;;7.30;;
23658;SDS011;12006;42.666;23.326;2023-11-21T09:03:28;9.03;;;7.07;;
23658;SDS011;12006;42.666;23.326;2023-11-21T09:05:53;10.67;;;8.00;;
23658;SDS011;12006;42.666;23.326;2023-11-21T09:08:18;9.63;;;6.40;;
23658;SDS011;12006;42.666;23.326;2023-11-21T09:10:44;9.97;;;6.70;;
23658;SDS011;12006;42.666;23.326;2023-11-21T09:13:12;10.00;;;7.90;;
23658;SDS011;12006;42.666;23.326;2023-11-21T09:15:37;8.30;;;6.17;;
23658;SDS011;12006;42.666;23.326;2023-11-21T09:18:02;10.70;;;6.67;;
23658;SDS011;12006;42.666;23.326;2023-11-21T09:20:28;12.90;;;8.03;;
23658;SDS011;12006;42.666;23.326;2023-11-21T09:22:53;19.70;;;10.80;;
23658;SDS011;12006;42.666;23.326;2023-11-21T09:25:20;20.37;;;11.13;;
23658;SDS011;12006;42.666;23.326;2023-11-21T09:27:46;24.70;;;15.30;;
23658;SDS011;12006;42.666;23.326;2023-11-21T09:30:12;12.50;;;8.63;;
23658;SDS011;12006;42.666;23.326;2023-11-21T09:32:39;16.33;;;9.37;;
23658;SDS011;12006;42.666;23.326;2023-11-21T09:35:05;12.67;;;7.47;;
23658;SDS011;12006;42.666;23.326;2023-11-21T09:37:33;11.43;;;8.80;;
23658;SDS011;12006;42.666;23.326;2023-11-21T09:39:58;13.63;;;9.83;;
23658;SDS011;12006;42.666;23.326;2023-11-21T09:42:25;13.83;;;9.93;;
23658;SDS011;12006;42.666;23.326;2023-11-21T09:45:02;15.00;;;9.80;;
23658;SDS011;12006;42.666;23.326;2023-11-21T09:47:29;15.17;;;9.80;;
23658;SDS011;12006;42.666;23.326;2023-11-21T09:49:55;15.70;;;9.77;;
23658;SDS011;12006;42.666;23.326;2023-11-21T09:52:25;14.73;;;10.07;;
23658;SDS011;12006;42.666;23.326;2023-11-21T09:54:51;14.50;;;11.57;;
23658;SDS011;12006;42.666;23.326;2023-11-21T09:57:19;15.13;;;11.53;;
23658;SDS011;12006;42.666;23.326;2023-11-21T09:59:44;15.73;;;11.40;;
23658;SDS011;12006;42.666;23.326;2023-11-21T10:02:10;13.57;;;10.43;;
23658;SDS011;12006;42.666;23.326;2023-11-21T10:04:38;13.73;;;10.33;;
23658;SDS011;12006;42.666;23.326;2023-11-21T10:07:04;15.03;;;10.23;;
23658;SDS011;12006;42.666;23.326;2023-11-21T10:09:34;13.53;;;10.10;;
23658;SDS011;12006;42.666;23.326;2023-11-21T10:11:59;13.00;;;9.50;;
23658;SDS011;12006;42.666;23.326;2023-11-21T10:14:25;10.07;;;8.00;;
23658;SDS011;12006;42.666;23.326;2023-11-21T10:16:54;13.30;;;10.27;;
23658;SDS011;12006;42.666;23.326;2023-11-21T10:19:19;10.73;;;9.00;;
23658;SDS011;12006;42.666;23.326;2023-11-21T10:21:46;12.00;;;9.47;;
23658;SDS011;12006;42.666;23.326;2023-11-21T10:24:11;11.03;;;8.47;;
23658;SDS011;12006;42.666;23.326;2023-11-21T10:26:37;9.07;;;7.50;;
23658;SDS011;12006;42.666;23.326;2023-11-21T10:29:03;10.03;;;7.87;;
23658;SDS011;12006;42.666;23.326;2023-11-21T10:31:29;9.37;;;7.00;;
23658;SDS011;12006;42.666;23.326;2023-11-21T10:33:56;11.77;;;7.80;;
23658;SDS011;12006;42.666;23.326;2023-11-21T10:36:27;21.83;;;14.93;;
23658;SDS011;12006;42.666;23.326;2023-11-21T10:38:52;19.03;;;14.87;;
23658;SDS011;12006;42.666;23.326;2023-11-21T10:41:18;17.60;;;13.23;;
23658;SDS011;12006;42.666;23.326;2023-11-21T10:43:43;17.10;;;13.40;;
23658;SDS011;12006;42.666;23.326;2023-11-21T10:46:09;19.77;;;13.13;;
23658;SDS011;12006;42.666;23.326;2023-11-21T10:48:34;19.57;;;13.40;;
23658;SDS011;12006;42.666;23.326;2023-11-21T10:51:01;16.57;;;12.80;;
23658;SDS011;12006;42.666;23.326;2023-11-21T10:53:31;16.97;;;12.23;;
23658;SDS011;12006;42.666;23.326;2023-11-21T10:56:04;18.40;;;13.13;;
23658;SDS011;12006;42.666;23.326;2023-11-21T10:58:30;14.90;;;11.23;;
23658;SDS011;12006;42.666;23.326;2023-11-21T11:00:57;11.93;;;9.00;;
23658;SDS011;12006;42.666;23.326;2023-11-21T11:03:23;13.60;;;10.70;;
23658;SDS011;12006;42.666;23.326;2023-11-21T11:05:48;14.20;;;11.13;;
23658;SDS011;12006;42.666;23.326;2023-11-21T11:08:16;12.80;;;10.50;;
23658;SDS011;12006;42.666;23.326;2023-11-21T11:10:44;12.00;;;10.47;;
23658;SDS011;12006;42.666;23.326;2023-11-21T11:13:11;18.40;;;12.73;;
23658;SDS011;12006;42.666;23.326;2023-11-21T11:15:40;16.13;;;11.93;;
23658;SDS011;12006;42.666;23.326;2023-11-21T11:18:05;14.30;;;10.60;;
23658;SDS011;12006;42.666;23.326;2023-11-21T11:20:35;16.10;;;10.83;;
23658;SDS011;12006;42.666;23.326;2023-11-21T11:25:58;12.83;;;10.87;;
23658;SDS011;12006;42.666;23.326;2023-11-21T11:28:34;18.53;;;11.17;;
23658;SDS011;12006;42.666;23.326;2023-11-21T11:31:05;13.03;;;9.97;;
23658;SDS011;12006;42.666;23.326;2023-11-21T11:33:51;14.70;;;10.20;;
23658;SDS011;12006;42.666;23.326;2023-11-21T11:38:49;10.90;;;9.10;;
23658;SDS011;12006;42.666;23.326;2023-11-21T11:41:15;10.90;;;8.53;;
23658;SDS011;12006;42.666;23.326;2023-11-21T11:43:48;14.33;;;10.17;;
23658;SDS011;12006;42.666;23.326;2023-11-21T11:46:14;11.47;;;8.37;;
23658;SDS011;12006;42.666;23.326;2023-11-21T11:48:39;10.50;;;8.97;;
23658;SDS011;12006;42.666;23.326;2023-11-21T11:53:40;14.23;;;10.33;;
23658;SDS011;12006;42.666;23.326;2023-11-21T11:56:18;13.97;;;10.07;;
23658;SDS011;12006;42.666;23.326;2023-11-21T11:58:45;13.33;;;9.87;;
23658;SDS011;12006;42.666;23.326;2023-11-21T12:01:11;12.20;;;10.10;;
23658;SDS011;12006;42.666;23.326;2023-11-21T12:03:37;13.90;;;9.93;;
23658;SDS011;12006;42.666;23.326;2023-11-21T12:06:02;13.57;;;11.13;;
23658;SDS011;12006;42.666;23.326;2023-11-21T12:08:28;15.53;;;11.30;;
23658;SDS011;12006;42.666;23.326;2023-11-21T12:10:56;16.90;;;11.07;;
23658;SDS011;12006;42.666;23.326;2023-11-21T12:13:22;16.80;;;12.20;;
23658;SDS011;12006;42.666;23.326;2023-11-21T12:15:48;14.97;;;12.27;;
23658;SDS011;12006;42.666;23.326;2023-11-21T12:18:13;15.70;;;12.43;;
23658;SDS011;12006;42.666;23.326;2023-11-21T12:20:39;15.83;;;12.77;;
23658;SDS011;12006;42.666;23.326;2023-11-21T12:23:06;15.47;;;10.97;;
23658;SDS011;12006;42.666;23.326;2023-11-21T12:25:31;14.87;;;9.77;;
23658;SDS011;12006;42.666;23.326;2023-11-21T12:27:58;15.17;;;10.47;;
23658;SDS011;12006;42.666;23.326;2023-11-21T12:30:30;14.47;;;10.40;;
23658;SDS011;12006;42.666;23.326;2023-11-21T12:32:57;18.13;;;12.17;;
23658;SDS011;12006;42.666;23.326;2023-11-21T12:35:26;17.87;;;12.57;;
23658;SDS011;12006;42.666;23.326;2023-11-21T12:37:52;18.30;;;11.73;;
23658;SDS011;12006;42.666;23.326;2023-11-21T12:40:18;16.23;;;12.53;;
23658;SDS011;12006;42.666;23.326;2023-11-21T12:42:44;21.33;;;12.87;;
23658;SDS011;12006;42.666;23.326;2023-11-21T12:47:56;20.83;;;14.30;;
23658;SDS011;12006;42.666;23.326;2023-11-21T12:50:25;21.57;;;14.17;;
23658;SDS011;12006;42.666;23.326;2023-11-21T12:52:53;16.97;;;13.60;;
23658;SDS011;12006;42.666;23.326;2023-11-21T12:55:19;21.00;;;13.70;;
23658;SDS011;12006;42.666;23.326;2023-11-21T12:57:51;20.83;;;14.47;;
23658;SDS011;12006;42.666;23.326;2023-11-21T13:00:17;20.07;;;14.07;;
23658;SDS011;12006;42.666;23.326;2023-11-21T13:02:55;18.63;;;13.47;;
23658;SDS011;12006;42.666;23.326;2023-11-21T13:05:27;20.93;;;14.30;;
23658;SDS011;12006;42.666;23.326;2023-11-21T13:07:53;18.67;;;14.27;;
23658;SDS011;12006;42.666;23.326;2023-11-21T13:10:20;21.53;;;14.77;;
23658;SDS011;12006;42.666;23.326;2023-11-21T13:12:52;17.53;;;12.87;;
23658;SDS011;12006;42.666;23.326;2023-11-21T13:15:17;20.00;;;13.93;;
23658;SDS011;12006;42.666;23.326;2023-11-21T13:17:43;19.93;;;14.57;;
23658;SDS011;12006;42.666;23.326;2023-11-21T13:20:10;21.37;;;13.70;;
23658;SDS011;12006;42.666;23.326;2023-11-21T13:22:44;21.67;;;15.03;;
23658;SDS011;12006;42.666;23.326;2023-11-21T13:25:09;23.43;;;14.50;;
23658;SDS011;12006;42.666;23.326;2023-11-21T13:27:35;17.03;;;13.67;;
23658;SDS011;12006;42.666;23.326;2023-11-21T13:30:02;21.17;;;13.83;;
23658;SDS011;12006;42.666;23.326;2023-11-21T13:32:28;19.07;;;13.20;;
23658;SDS011;12006;42.666;23.326;2023-11-21T13:34:54;20.27;;;13.93;;
23658;SDS011;12006;42.666;23.326;2023-11-21T13:37:20;19.67;;;13.60;;
23658;SDS011;12006;42.666;23.326;2023-11-21T13:39:45;21.27;;;13.83;;
23658;SDS011;12006;42.666;23.326;2023-11-21T13:42:15;17.87;;;13.97;;
23658;SDS011;12006;42.666;23.326;2023-11-21T13:44:41;20.97;;;14.70;;
23658;SDS011;12006;42.666;23.326;2023-11-21T13:47:09;22.03;;;13.63;;
23658;SDS011;12006;42.666;23.326;2023-11-21T13:49:35;19.30;;;14.77;;
23658;SDS011;12006;42.666;23.326;2023-11-21T13:52:05;19.47;;;14.53;;
23658;SDS011;12006;42.666;23.326;2023-11-21T13:54:32;21.20;;;14.73;;
23658;SDS011;12006;42.666;23.326;2023-11-21T13:56:57;18.03;;;13.30;;
23658;SDS011;12006;42.666;23.326;2023-11-21T13:59:24;17.93;;;13.50;;
23658;SDS011;12006;42.666;23.326;2023-11-21T14:01:55;19.33;;;13.57;;
23658;SDS011;12006;42.666;23.326;2023-11-21T14:04:22;18.40;;;14.17;;
23658;SDS011;12006;42.666;23.326;2023-11-21T14:07:06;19.63;;;13.00;;
23658;SDS011;12006;42.666;23.326;2023-11-21T14:09:51;20.40;;;14.03;;
23658;SDS011;12006;42.666;23.326;2023-11-21T14:12:17;20.73;;;13.40;;
23658;SDS011;12006;42.666;23.326;2023-11-21T14:14:43;18.53;;;13.47;;
23658;SDS011;12006;42.666;23.326;2023-11-21T14:17:09;18.10;;;13.67;;
23658;SDS011;12006;42.666;23.326;2023-11-21T14:19:35;19.93;;;13.80;;
23658;SDS011;12006;42.666;23.326;2023-11-21T14:22:05;19.20;;;14.10;;
23658;SDS011;12006;42.666;23.326;2023-11-21T14:24:30;19.23;;;14.60;;
23658;SDS011;12006;42.666;23.326;2023-11-21T14:26:57;17.63;;;14.10;;